createdAt,value
2018-10-09T07:10:38.904Z,11.45
2018-10-09T07:13:07.961Z,11.49
2018-10-09T07:15:37.075Z,11.54
2018-10-09T07:18:06.304Z,11.59
2018-10-09T07:20:35.527Z,11.65
2018-10-09T07:23:04.701Z,11.67
2018-10-09T07:25:33.779Z,11.70
2018-10-09T07:28:03.042Z,11.72
2018-10-09T07:30:31.966Z,11.75
2018-10-09T07:33:01.105Z,11.78
2018-10-09T07:35:30.237Z,11.80
2018-10-09T07:37:59.330Z,11.79
2018-10-09T07:40:28.416Z,11.77
2018-10-09T07:42:57.487Z,11.79
2018-10-09T07:45:26.565Z,11.83
2018-10-09T07:47:56.089Z,11.84
2018-10-09T07:50:26.173Z,11.89
2018-10-09T07:52:56.042Z,11.94
2018-10-09T07:55:25.997Z,11.98
2018-10-09T07:57:56.048Z,12.02
2018-10-09T08:00:26.016Z,12.09
2018-10-09T08:02:56.123Z,12.10
2018-10-09T08:05:26.272Z,12.10
2018-10-09T08:07:56.194Z,12.07
2018-10-09T08:10:26.160Z,12.11
2018-10-09T08:12:56.283Z,12.08
2018-10-09T08:15:26.362Z,12.15
2018-10-09T08:17:56.308Z,12.22
2018-10-09T08:20:26.238Z,12.26
2018-10-09T08:22:56.406Z,12.30
2018-10-09T08:25:26.386Z,12.38
2018-10-09T08:27:56.376Z,12.40
2018-10-09T08:30:26.334Z,12.43
2018-10-09T08:32:56.383Z,12.49
2018-10-09T08:35:26.464Z,12.54
2018-10-09T08:37:56.471Z,12.63
2018-10-09T08:40:26.679Z,12.66
2018-10-09T08:42:56.635Z,12.76
2018-10-09T08:45:26.559Z,12.84
2018-10-09T08:47:56.748Z,12.90
2018-10-09T08:50:26.603Z,12.93
2018-10-09T08:52:56.726Z,12.99
2018-10-09T08:55:26.658Z,13.05
2018-10-09T08:57:57.106Z,13.08
2018-10-09T09:00:26.725Z,13.13
2018-10-09T09:02:56.788Z,13.17
2018-10-09T09:05:26.754Z,13.23
2018-10-09T09:07:56.826Z,13.24
2018-10-09T09:10:26.720Z,13.29
2018-10-09T09:12:56.784Z,13.18
2018-10-09T09:15:26.792Z,13.45
2018-10-09T09:17:56.826Z,13.49
2018-10-09T09:20:27.401Z,13.53
2018-10-09T09:22:56.898Z,13.62
2018-10-09T09:25:27.039Z,13.73
2018-10-09T09:27:56.895Z,13.80
2018-10-09T09:30:26.895Z,13.94
2018-10-09T09:32:57.022Z,14.01
2018-10-09T09:35:26.922Z,14.09
2018-10-09T09:37:57.054Z,14.19
2018-10-09T09:40:26.966Z,14.25
2018-10-09T09:42:57.099Z,14.25
2018-10-09T09:45:27.021Z,14.35
2018-10-09T09:47:57.098Z,14.48
2018-10-09T09:50:27.045Z,14.48
2018-10-09T09:52:57.119Z,14.62
2018-10-09T09:55:27.237Z,14.71
2018-10-09T09:57:57.299Z,14.74
2018-10-09T10:00:32.610Z,14.82
2018-10-09T10:03:01.792Z,14.86
2018-10-09T10:05:30.938Z,14.92
2018-10-09T10:08:00.018Z,14.99
2018-10-09T10:10:29.123Z,15.03
2018-10-09T10:12:58.230Z,15.09
2018-10-09T10:15:27.300Z,15.13
2018-10-09T10:17:57.359Z,15.18
2018-10-09T10:20:27.492Z,15.23
2018-10-09T10:22:57.555Z,15.30
2018-10-09T10:25:27.501Z,15.33
2018-10-09T10:27:57.651Z,15.37
2018-10-09T10:30:27.565Z,15.47
2018-10-09T10:32:57.735Z,15.56
2018-10-09T10:35:27.551Z,15.68
2018-10-09T10:37:57.731Z,15.71
2018-10-09T10:40:27.609Z,15.79
2018-10-09T10:42:57.688Z,15.93
2018-10-09T10:45:27.645Z,16.05
2018-10-09T10:47:57.788Z,16.14
2018-10-09T10:50:27.896Z,16.24
2018-10-09T10:52:57.811Z,16.22
2018-10-09T10:55:27.968Z,16.28
2018-10-09T10:57:57.919Z,16.35
2018-10-09T11:00:27.823Z,16.44
2018-10-09T11:02:57.801Z,16.48
2018-10-09T11:20:55.866Z,16.82
2018-10-09T11:23:25.986Z,16.84
2018-10-09T11:25:55.126Z,16.86
2018-10-09T11:28:24.549Z,16.97
2018-10-09T11:30:53.648Z,17.09
2018-10-09T11:33:23.073Z,17.21
2018-10-09T11:35:52.194Z,17.32
2018-10-09T11:38:22.115Z,17.29
2018-10-09T11:40:51.195Z,17.36
2018-10-09T11:43:20.650Z,17.49
2018-10-09T11:45:49.807Z,17.48
2018-10-09T11:48:21.451Z,17.42
2018-10-09T11:50:50.591Z,17.35
2018-10-09T11:53:20.087Z,17.36
2018-10-09T11:55:49.226Z,17.40
2018-10-09T11:58:18.701Z,17.49
2018-10-09T12:00:49.241Z,17.60
2018-10-09T12:03:18.735Z,17.68
2018-10-09T12:05:47.934Z,17.74
2018-10-09T12:08:32.170Z,17.72
2018-10-09T12:11:01.847Z,17.71
2018-10-09T12:13:30.945Z,17.68
2018-10-09T12:16:00.128Z,17.61
2018-10-09T12:18:29.188Z,17.60
2018-10-09T12:20:58.545Z,17.53
2018-10-09T12:28:37.562Z,17.39
2018-10-09T12:31:06.787Z,17.51
2018-10-09T12:33:35.963Z,17.50
2018-10-09T12:36:05.505Z,17.45
2018-10-09T12:38:34.845Z,17.44
2018-10-09T12:41:03.987Z,17.52
2018-10-09T12:43:33.111Z,17.67
2018-10-09T12:46:02.217Z,17.76
2018-10-09T12:48:31.840Z,17.93
2018-10-09T12:51:00.973Z,17.96
2018-10-09T12:53:30.116Z,18.08
2018-10-09T12:55:59.213Z,18.20
2018-10-09T12:58:29.397Z,18.23
2018-10-09T13:00:58.999Z,18.10
2018-10-09T13:03:29.004Z,17.94
2018-10-09T13:05:58.987Z,17.90
2018-10-09T13:13:34.217Z,18.08
2018-10-09T13:16:03.359Z,18.12
2018-10-09T13:18:32.448Z,18.15
2018-10-09T13:21:01.749Z,18.18
2018-10-09T13:23:30.804Z,18.19
2018-10-09T13:25:59.960Z,18.26
2018-10-09T13:28:29.592Z,18.30
2018-10-09T13:30:59.408Z,18.41
2018-10-09T13:33:29.265Z,18.45
2018-10-09T13:35:59.283Z,18.54
2018-10-09T13:53:57.571Z,18.63
2018-10-09T13:56:27.131Z,18.69
2018-10-09T13:58:56.249Z,18.69
2018-10-09T14:01:25.405Z,18.71
2018-10-09T14:03:54.601Z,18.75
2018-10-09T14:06:24.102Z,18.82
2018-10-09T14:08:53.313Z,18.84
2018-10-09T14:11:22.897Z,18.88
2018-10-09T14:13:53.617Z,18.96
2018-10-09T14:16:23.177Z,19.03
2018-10-09T14:18:52.365Z,19.02
2018-10-09T14:21:23.410Z,19.08
2018-10-09T14:23:52.567Z,19.14
2018-10-09T14:26:22.043Z,19.26
2018-10-09T14:28:51.219Z,19.35
2018-10-09T14:31:20.467Z,19.51
2018-10-09T14:33:49.585Z,19.71
2018-10-09T14:49:16.186Z,20.08
2018-10-09T14:51:45.266Z,20.00
2018-10-09T14:54:14.414Z,19.92
2018-10-09T14:56:43.947Z,19.90
2018-10-09T14:59:13.050Z,19.85
2018-10-09T15:01:42.204Z,19.90
2018-10-09T15:04:11.438Z,19.89
2018-10-09T15:06:40.614Z,19.85
2018-10-09T15:09:11.348Z,19.74
2018-10-09T15:11:40.628Z,19.62
2018-10-09T15:14:09.804Z,19.47
2018-10-09T15:16:39.295Z,19.32
2018-10-09T15:19:08.847Z,19.19
2018-10-09T15:21:38.173Z,19.04
2018-10-09T15:24:07.372Z,18.87
2018-10-09T15:26:36.533Z,18.73
2018-10-09T15:29:05.681Z,18.60
2018-10-09T15:31:34.802Z,18.45
2018-10-09T15:34:03.914Z,18.33
2018-10-09T15:36:32.990Z,18.20
2018-10-09T15:39:02.148Z,18.08
2018-10-09T15:41:31.284Z,17.97
2018-10-09T15:44:00.604Z,17.89
2018-10-09T15:51:31.012Z,17.62
2018-10-09T15:54:00.958Z,17.53
2018-10-09T15:56:33.024Z,17.41
2018-10-09T15:59:03.990Z,17.30
2018-10-09T16:01:33.167Z,17.21
2018-10-09T16:04:02.358Z,17.11
2018-10-09T16:06:31.423Z,16.98
2018-10-09T16:09:01.309Z,16.91
2018-10-09T16:11:33.213Z,16.85
2018-10-09T16:14:03.875Z,16.79
2018-10-09T16:16:33.068Z,16.74
2018-10-09T16:19:02.188Z,16.70
2018-10-09T16:21:31.698Z,16.60
2018-10-09T16:24:01.764Z,16.52
2018-10-09T16:52:23.585Z,15.87
2018-10-09T16:54:52.754Z,15.80
2018-10-09T16:57:22.223Z,15.75
2018-10-09T16:59:51.367Z,15.68
2018-10-09T17:02:21.033Z,15.62
2018-10-09T17:04:50.187Z,15.55
2018-10-09T17:07:20.081Z,15.48
2018-10-09T17:09:49.196Z,15.39
2018-10-09T17:12:18.723Z,15.29
2018-10-09T17:14:48.262Z,15.19
2018-10-09T17:17:17.607Z,15.11
2018-10-09T17:19:46.823Z,15.02
2018-10-09T17:22:16.239Z,14.93
2018-10-09T17:24:45.479Z,14.85
2018-10-09T17:27:15.033Z,14.77
2018-10-09T17:29:44.519Z,14.73
2018-10-09T17:32:13.728Z,14.68
2018-10-09T17:34:42.875Z,14.60
2018-10-09T17:37:12.051Z,14.51
2018-10-09T17:39:41.169Z,14.45
2018-10-09T17:42:10.374Z,14.40
2018-10-09T17:44:39.519Z,14.35
2018-10-09T17:47:09.453Z,14.32
2018-10-09T17:49:40.155Z,14.26
2018-10-09T17:52:10.366Z,14.19
2018-10-09T17:54:39.516Z,14.15
2018-10-09T17:57:08.667Z,14.10
2018-10-09T17:59:37.906Z,14.06
2018-10-09T18:02:07.095Z,14.03
2018-10-09T18:04:36.234Z,14.00
2018-10-09T18:07:05.479Z,13.94
2018-10-09T18:09:34.640Z,13.88
2018-10-09T18:12:03.822Z,13.84
2018-10-09T18:14:33.283Z,13.77
2018-10-09T18:17:02.943Z,13.72
2018-10-09T18:19:33.211Z,13.65
2018-10-09T18:22:02.938Z,13.61
2018-10-09T18:40:15.059Z,13.26
2018-10-09T18:42:44.369Z,13.22
2018-10-09T18:45:13.566Z,13.20
2018-10-09T18:47:44.092Z,13.17
2018-10-09T18:50:13.751Z,13.16
2018-10-09T18:52:43.375Z,13.14
2018-10-09T18:55:14.402Z,13.12
2018-10-09T18:57:44.181Z,13.10
2018-10-09T19:00:14.056Z,13.04
2018-10-09T19:02:43.301Z,13.00
2018-10-09T19:05:12.521Z,12.93
2018-10-09T19:07:41.867Z,12.86
2018-10-09T19:10:11.330Z,12.80
2018-10-09T19:12:40.706Z,12.75
2018-10-09T19:15:10.142Z,12.71
2018-10-09T19:17:39.573Z,12.64
2018-10-09T19:20:09.084Z,12.56
2018-10-09T19:22:38.462Z,12.52
2018-10-09T19:25:09.780Z,12.48
2018-10-09T19:27:39.077Z,12.47
2018-10-09T19:30:09.041Z,12.45
2018-10-09T19:32:38.481Z,12.43
2018-10-09T19:35:38.745Z,12.40
2018-10-09T19:38:07.976Z,12.38
2018-10-09T19:40:37.279Z,12.34
2018-10-09T19:43:06.655Z,12.33
2018-10-09T19:45:36.086Z,12.32
2018-10-09T19:48:05.461Z,12.31
2018-10-09T19:50:34.771Z,12.30
2018-10-09T19:53:04.055Z,12.26
2018-10-09T19:55:34.536Z,12.24
2018-10-09T19:58:04.190Z,12.21
2018-10-09T20:00:34.401Z,12.18
2018-10-09T20:06:06.226Z,12.07
2018-10-09T20:08:35.545Z,12.01
2018-10-09T20:11:35.526Z,11.97
2018-10-09T20:14:04.637Z,11.95
2018-10-09T20:16:34.016Z,11.92
2018-10-09T20:19:04.060Z,11.89
2018-10-09T20:26:36.065Z,11.80
2018-10-09T20:29:05.550Z,11.77
2018-10-09T20:31:34.642Z,11.73
2018-10-09T20:34:04.300Z,11.69
2018-10-09T20:36:33.443Z,11.64
2018-10-09T20:39:02.851Z,11.60
2018-10-09T20:41:32.638Z,11.58
2018-10-09T20:44:01.757Z,11.55
2018-10-09T20:46:30.974Z,11.51
2018-10-09T20:49:00.106Z,11.45
2018-10-09T20:51:29.615Z,11.44
2018-10-09T20:53:58.707Z,11.42
2018-10-09T20:56:27.895Z,11.38
2018-10-09T20:58:57.006Z,11.39
2018-10-09T21:01:26.501Z,11.38
2018-10-09T21:03:55.709Z,11.37
2018-10-09T21:06:25.237Z,11.34
2018-10-09T21:08:54.337Z,11.30
2018-10-09T21:11:23.790Z,11.27
2018-10-09T21:13:52.902Z,11.22
2018-10-09T21:16:22.445Z,11.17
2018-10-09T21:18:51.567Z,11.13
2018-10-09T21:21:21.111Z,11.10
2018-10-09T21:23:50.230Z,11.09
2018-10-09T21:26:19.617Z,11.07
2018-10-09T21:28:48.759Z,11.05
2018-10-09T21:31:18.244Z,11.04
2018-10-09T21:33:47.439Z,11.05
2018-10-09T21:36:16.537Z,11.04
2018-10-09T21:38:46.015Z,11.02
2018-10-09T21:41:15.126Z,11.01
2018-10-09T21:43:44.237Z,10.98
2018-10-09T21:46:13.403Z,10.95
2018-10-09T21:48:42.507Z,10.92
2018-10-09T21:51:11.623Z,10.90
2018-10-09T21:53:40.722Z,10.85
2018-10-09T21:56:09.939Z,10.83
2018-10-09T21:58:39.110Z,10.81
2018-10-09T22:01:09.223Z,10.80
2018-10-09T22:03:38.502Z,10.78
2018-10-09T22:06:08.072Z,10.73
2018-10-09T22:08:37.205Z,10.69
2018-10-09T22:11:06.330Z,10.65
2018-10-09T22:29:16.025Z,10.50
2018-10-09T22:31:45.156Z,10.49
2018-10-09T22:34:14.302Z,10.48
2018-10-09T22:36:43.394Z,10.45
2018-10-09T22:39:12.478Z,10.45
2018-10-09T22:41:41.573Z,10.44
2018-10-09T22:44:10.744Z,10.44
2018-10-09T22:46:39.851Z,10.43
2018-10-09T22:49:09.036Z,10.42
2018-10-09T22:51:38.143Z,10.41
2018-10-09T22:54:07.260Z,10.38
2018-10-09T22:56:36.773Z,10.37
2018-10-09T22:59:06.814Z,10.36
2018-10-09T23:06:37.900Z,10.30
2018-10-09T23:09:09.454Z,10.28
2018-10-09T23:11:38.676Z,10.25
2018-10-09T23:14:07.814Z,10.21
2018-10-09T23:16:37.317Z,10.19
2018-10-09T23:19:07.072Z,10.14
2018-10-09T23:26:42.503Z,10.03
2018-10-09T23:29:11.589Z,10.01
2018-10-09T23:31:40.668Z,9.99
2018-10-09T23:34:09.882Z,9.88
2018-10-09T23:36:38.957Z,9.81
2018-10-09T23:39:09.353Z,9.83
2018-10-09T23:41:38.425Z,9.81
2018-10-09T23:44:07.553Z,9.80
2018-10-09T23:46:37.235Z,9.72
2018-10-09T23:49:07.294Z,9.75
2018-10-09T23:51:37.209Z,9.72
2018-10-09T23:54:07.390Z,9.68
2018-10-09T23:56:37.358Z,9.63
2018-10-09T23:59:07.673Z,9.58
